Decoded Metar for KHUL (HOULTON in ME, USA) (IATA:HUL) | Meteo·Mobile Aviation Weather
aviador You're here:

KHUL Decoded Metar

HOULTON in ME, USA
Report Time2019-01-20 10:49:00
UTC Time2019-01-20 10:58:09
Flight Rules ifr IFR
Wind020° at 08 kt
W.Decomp.*RWY 05: 7.8 kt HW 1.7 kt LCW
RWY 01: 7.1 kt HW 3.8 kt RCW
W.Rank020° ranks 19
Current wind is above 020° avg. (6.9)
Visibility2816 m
Phenomena:Light Snow
Mist
Clouds:Overcast 036 Hf
Expected CloudBase > 800 ft AGL from Temp-Dew spread
Ceiling3,600 ft
Temp-21°C (ISA -35)
Dew Point-23°C (84% RH)
AAT-27.6°C
QNH1022 hPa
Density Alt-4,295 ft
Elevation492 ft
Report Wrong Elevation
Raw Report
KHUL 201049Z AUTO 02008KT 1 3/4SM -SN BR OVC036 M21/M23 A3017 RMK
AO2 SNE0955B17E27B46 PRESFR P0000 TSNO=

Extra information for KHUL:More info

Metar Taf Metar & Taf Last 4 Metars F.Rules Stats Wind Profile Meteogram Temp Stats Airport Information Weather charts Add Link Nearby VenuesMetar ALERT Operation Metar Decoded Social comments

AIRNAV info for KHUL